Time;durP1;ratioP1;P1;durP2;ratioP2;P2;SDS_P1;SDS_P2;PMS_P1;PMS_P2;Temp;Humidity;BMP_temperature;BMP_pressure;BME280_temperature;BME280_humidity;BME280_pressure;Samples;Min_cycle;Max_cycle;Signal;HPM_P1;HPM_P2
2024/02/01 00:01:22;;;;;;;80.55;31.65;;;-0.40;99.90;;;;;;6213991;23;20020;-74
2024/02/01 00:03:51;;;;;;;88.47;33.22;;;-0.40;99.90;;;;;;6187132;23;20095;-74
2024/02/01 00:06:19;;;;;;;92.60;32.28;;;-0.40;99.90;;;;;;6187371;23;20028;-73
2024/02/01 00:08:48;;;;;;;86.78;31.05;;;-0.40;99.90;;;;;;6187142;23;20021;-73
2024/02/01 00:11:16;;;;;;;82.10;31.30;;;-0.30;99.90;;;;;;6213021;23;20096;-73
2024/02/01 00:13:47;;;;;;;80.93;29.25;;;-0.30;99.90;;;;;;6213546;23;20021;-74
2024/02/01 00:16:21;;;;;;;82.63;31.23;;;-0.30;99.90;;;;;;6186916;23;20024;-74
2024/02/01 00:18:49;;;;;;;81.25;30.15;;;-0.30;99.90;;;;;;6187309;23;20042;-74
2024/02/01 00:21:19;;;;;;;78.05;30.35;;;-0.20;99.90;;;;;;6187345;23;20020;-73
2024/02/01 00:23:47;;;;;;;79.28;29.70;;;-0.20;99.90;;;;;;6213197;23;20020;-74
2024/02/01 00:26:16;;;;;;;82.07;30.48;;;-0.20;99.90;;;;;;6186805;23;20024;-74
2024/02/01 00:28:45;;;;;;;74.75;27.63;;;-0.30;99.90;;;;;;6212336;23;20071;-75
2024/02/01 00:31:14;;;;;;;88.90;32.58;;;-0.20;99.90;;;;;;6186885;23;20074;-76
2024/02/01 00:33:42;;;;;;;81.43;31.55;;;-0.30;99.90;;;;;;6186469;23;20405;-75
2024/02/01 00:36:11;;;;;;;89.60;32.35;;;-0.30;99.90;;;;;;6214053;23;20051;-73
2024/02/01 00:38:39;;;;;;;87.88;33.40;;;-0.30;99.90;;;;;;6186715;23;20021;-74
2024/02/01 00:41:08;;;;;;;84.13;31.77;;;-0.30;99.90;;;;;;6186128;23;20647;-74
2024/02/01 00:43:36;;;;;;;72.97;28.63;;;-0.30;99.90;;;;;;6185092;23;20031;-75
2024/02/01 00:46:06;;;;;;;78.15;29.90;;;-0.30;99.90;;;;;;6212497;23;20023;-74
2024/02/01 00:48:35;;;;;;;85.03;32.83;;;-0.20;99.90;;;;;;6214168;23;20032;-74
2024/02/01 00:51:04;;;;;;;68.88;27.80;;;-0.20;99.90;;;;;;6186039;23;20501;-74
2024/02/01 00:53:33;;;;;;;78.03;30.67;;;-0.20;99.90;;;;;;6213378;23;20067;-75
2024/02/01 00:56:01;;;;;;;81.85;29.30;;;-0.10;99.90;;;;;;6187018;23;20016;-75
2024/02/01 00:58:30;;;;;;;95.07;31.88;;;-0.10;99.90;;;;;;6185774;23;20075;-77
2024/02/01 01:00:58;;;;;;;75.85;29.75;;;-0.10;99.90;;;;;;6185929;23;20354;-73
2024/02/01 01:03:28;;;;;;;80.45;29.25;;;-0.20;99.90;;;;;;6187918;23;20032;-78
2024/02/01 01:05:57;;;;;;;79.38;29.08;;;-0.10;99.90;;;;;;6215649;23;20040;-77
2024/02/01 01:08:25;;;;;;;75.97;26.40;;;-0.20;99.90;;;;;;6215492;23;20023;-78
2024/02/01 01:10:54;;;;;;;81.22;28.10;;;-0.20;99.90;;;;;;6215885;23;20024;-78
2024/02/01 01:13:22;;;;;;;75.90;30.17;;;-0.20;99.90;;;;;;6214941;23;20005;-80
2024/02/01 01:15:53;;;;;;;73.22;29.15;;;-0.20;99.90;;;;;;6214686;23;20033;-77
2024/02/01 01:18:22;;;;;;;75.90;29.00;;;-0.10;99.90;;;;;;6216117;23;20039;-78
2024/02/01 01:20:52;;;;;;;76.18;28.77;;;-0.10;99.90;;;;;;6241426;23;19992;-78
2024/02/01 01:23:21;;;;;;;73.63;29.23;;;-0.20;99.90;;;;;;6215530;23;19993;-80
2024/02/01 01:25:50;;;;;;;69.72;28.00;;;1.20;99.90;;;;;;6241645;23;19997;-77
2024/02/01 01:28:19;;;;;;;69.45;29.08;;;1.10;99.90;;;;;;6215653;23;20001;-78
2024/02/01 01:30:51;;;;;;;80.45;29.00;;;0.20;99.90;;;;;;6215766;23;20012;-78
2024/02/01 01:33:22;;;;;;;72.97;29.00;;;-0.30;99.90;;;;;;6215013;23;20016;-78
2024/02/01 01:35:53;;;;;;;70.63;27.15;;;0.30;99.90;;;;;;6241924;23;20025;-77
2024/02/01 01:38:22;;;;;;;76.90;30.88;;;1.50;99.90;;;;;;6215522;23;20004;-77
2024/02/01 01:40:51;;;;;;;70.13;28.08;;;-0.20;99.90;;;;;;6214387;23;20031;-77
2024/02/01 01:43:21;;;;;;;67.53;27.08;;;0.10;99.90;;;;;;6214790;23;20001;-77
2024/02/01 01:46:01;;;;;;;76.15;29.80;;;-0.20;99.90;;;;;;6215955;23;20026;-77
2024/02/01 01:48:31;;;;;;;76.35;29.35;;;0.00;99.90;;;;;;6215862;23;20009;-77
2024/02/01 01:51:02;;;;;;;72.75;26.98;;;0.10;99.90;;;;;;6214834;23;20543;-78
2024/02/01 01:53:33;;;;;;;74.72;28.65;;;-0.10;99.90;;;;;;6214529;23;20020;-78
2024/02/01 01:56:03;;;;;;;73.72;28.80;;;-0.30;99.90;;;;;;6216908;23;20076;-80
2024/02/01 01:58:34;;;;;;;73.22;28.50;;;-0.30;99.90;;;;;;6243111;23;20003;-78
2024/02/01 02:01:03;;;;;;;74.68;28.70;;;-0.20;99.90;;;;;;6216923;23;20001;-78
2024/02/01 02:03:37;;;;;;;68.18;28.00;;;-0.30;99.90;;;;;;6215890;23;20012;-79
2024/02/01 02:06:07;;;;;;;70.53;27.73;;;0.80;99.90;;;;;;6242144;23;20035;-77
2024/02/01 02:08:36;;;;;;;73.13;25.98;;;-0.30;99.90;;;;;;6217101;23;20141;-77
2024/02/01 02:11:06;;;;;;;75.82;27.90;;;0.80;99.90;;;;;;6241397;23;20291;-78
2024/02/01 02:13:34;;;;;;;73.35;26.65;;;1.20;99.90;;;;;;6216288;23;19997;-77
2024/02/01 02:16:04;;;;;;;72.20;28.17;;;-0.20;99.90;;;;;;6215735;23;20031;-78
2024/02/01 02:18:32;;;;;;;75.47;27.08;;;-0.20;99.90;;;;;;6189914;23;20040;-78
2024/02/01 02:21:03;;;;;;;74.80;27.40;;;-0.20;99.90;;;;;;6189762;23;20024;-78
2024/02/01 02:23:34;;;;;;;73.22;29.50;;;-0.20;99.90;;;;;;6189067;23;20047;-77
2024/02/01 02:26:07;;;;;;;72.97;29.08;;;-0.20;99.90;;;;;;6188515;23;20383;-78
2024/02/01 02:28:38;;;;;;;69.15;28.50;;;-0.20;99.90;;;;;;6216378;23;20021;-78
2024/02/01 02:31:07;;;;;;;70.95;29.20;;;-0.30;99.90;;;;;;6215962;23;20016;-77
2024/02/01 02:33:35;;;;;;;88.85;33.90;;;-0.30;99.90;;;;;;6189601;23;20020;-77
2024/02/01 02:36:09;;;;;;;73.30;30.27;;;-0.30;99.90;;;;;;6190079;23;20029;-78
2024/02/01 02:38:40;;;;;;;76.75;29.30;;;-0.30;99.90;;;;;;6190074;23;20111;-78
2024/02/01 02:41:09;;;;;;;77.75;28.88;;;-0.30;99.90;;;;;;6216260;23;20064;-77
2024/02/01 02:43:37;;;;;;;62.70;26.50;;;-0.40;99.90;;;;;;6189606;23;20035;-78
2024/02/01 02:46:05;;;;;;;64.20;27.95;;;-0.40;99.90;;;;;;6188975;23;20025;-78
2024/02/01 02:48:34;;;;;;;65.55;26.08;;;-0.40;99.90;;;;;;6189822;23;20055;-78
2024/02/01 02:51:03;;;;;;;66.63;26.88;;;-0.40;99.90;;;;;;6216604;23;20017;-77
2024/02/01 02:53:31;;;;;;;62.92;24.25;;;-0.50;99.90;;;;;;6188523;23;20025;-78
2024/02/01 02:56:05;;;;;;;65.88;24.58;;;-0.50;99.90;;;;;;6216495;23;20012;-77
2024/02/01 02:58:35;;;;;;;70.65;24.85;;;-0.50;99.90;;;;;;6215465;23;20055;-77
2024/02/01 03:01:07;;;;;;;68.15;26.00;;;-0.50;99.90;;;;;;6189715;23;20081;-77
2024/02/01 03:03:40;;;;;;;62.28;26.00;;;-0.50;99.90;;;;;;6215449;23;20051;-77
2024/02/01 03:06:09;;;;;;;69.18;26.45;;;-0.50;99.90;;;;;;6216063;23;20048;-77
2024/02/01 03:08:39;;;;;;;63.92;24.60;;;-0.50;99.90;;;;;;6190199;23;20024;-77
2024/02/01 03:11:10;;;;;;;57.63;25.38;;;-0.50;99.90;;;;;;6189454;23;20421;-77
2024/02/01 03:13:39;;;;;;;59.67;24.83;;;-0.60;99.90;;;;;;6188579;23;20412;-77
2024/02/01 03:16:16;;;;;;;71.00;26.25;;;-0.60;99.90;;;;;;6215592;23;20032;-77
2024/02/01 03:18:45;;;;;;;69.07;24.45;;;-0.60;99.90;;;;;;6187372;23;20076;-77
2024/02/01 03:21:14;;;;;;;69.97;25.88;;;-0.60;99.90;;;;;;6189110;23;20021;-77
2024/02/01 03:23:44;;;;;;;71.65;26.08;;;-0.60;99.90;;;;;;6187865;23;20107;-77
2024/02/01 04:34:23;;;;;;;66.45;28.13;;;-0.70;99.90;;;;;;6164683;23;20055;-78
2024/02/01 04:36:53;;;;;;;59.72;25.30;;;-0.70;99.90;;;;;;6222201;23;20040;-79
2024/02/01 04:39:21;;;;;;;54.25;22.10;;;-0.70;99.90;;;;;;6194103;23;20031;-79
2024/02/01 04:41:53;;;;;;;51.10;20.70;;;-0.70;99.90;;;;;;6195166;23;20012;-79
2024/02/01 04:44:22;;;;;;;57.90;22.65;;;0.00;99.90;;;;;;6194242;23;20028;-79
2024/02/01 04:46:50;;;;;;;55.75;20.02;;;-0.80;99.90;;;;;;6194518;23;20088;-79
2024/02/01 04:49:19;;;;;;;53.83;22.42;;;-0.80;99.90;;;;;;6195791;23;20024;-79
2024/02/01 04:51:49;;;;;;;55.78;22.95;;;-0.80;99.90;;;;;;6221403;23;20092;-79
2024/02/01 04:54:17;;;;;;;57.95;23.17;;;-0.80;99.90;;;;;;6221785;23;20016;-79
2024/02/01 04:56:46;;;;;;;67.03;24.83;;;-0.80;99.90;;;;;;6194951;23;20020;-79
2024/02/01 04:59:14;;;;;;;56.58;23.17;;;-0.80;99.90;;;;;;6194294;23;20052;-79
2024/02/01 05:01:43;;;;;;;62.08;23.40;;;-0.80;99.90;;;;;;6220387;23;20076;-79
2024/02/01 05:04:13;;;;;;;63.08;22.77;;;-0.80;99.90;;;;;;6193495;23;20024;-78
2024/02/01 05:06:42;;;;;;;57.20;22.90;;;-0.80;99.90;;;;;;6194043;23;20031;-79
2024/02/01 05:09:25;;;;;;;54.38;23.23;;;-0.80;99.90;;;;;;6220032;23;20021;-79
2024/02/01 05:11:54;;;;;;;59.45;22.48;;;-0.80;99.90;;;;;;6193428;23;20031;-79
2024/02/01 05:14:23;;;;;;;60.03;22.52;;;-0.80;99.90;;;;;;6194664;23;20027;-79
2024/02/01 05:16:52;;;;;;;61.72;23.13;;;-0.80;99.90;;;;;;6194279;23;20028;-79
2024/02/01 05:19:21;;;;;;;52.25;21.65;;;-0.80;99.90;;;;;;6197072;23;20032;-79
2024/02/01 05:21:52;;;;;;;55.67;22.00;;;-0.70;99.90;;;;;;6197373;23;20023;-79
2024/02/01 05:24:23;;;;;;;62.83;22.80;;;-0.70;99.90;;;;;;6222911;23;20019;-79
2024/02/01 05:26:53;;;;;;;64.55;22.60;;;-0.70;99.90;;;;;;6196566;23;20119;-79
2024/02/01 05:29:23;;;;;;;59.72;23.45;;;-0.70;99.90;;;;;;6225202;23;20023;-79
2024/02/01 05:31:52;;;;;;;68.22;24.90;;;-0.70;99.90;;;;;;6224774;23;20017;-79
2024/02/01 05:34:21;;;;;;;58.17;21.58;;;-0.70;99.90;;;;;;6196915;23;20079;-79
2024/02/01 05:36:53;;;;;;;60.95;22.95;;;-0.70;99.90;;;;;;6198347;23;20025;-79
2024/02/01 05:39:25;;;;;;;59.08;25.08;;;-0.70;99.90;;;;;;6196623;23;20024;-79
2024/02/01 05:41:54;;;;;;;87.32;32.05;;;-0.70;99.90;;;;;;6196614;23;20076;-79
2024/02/01 05:44:24;;;;;;;78.72;28.75;;;-0.70;99.90;;;;;;6196036;23;20027;-78
2024/02/01 05:46:54;;;;;;;77.18;26.15;;;-0.60;99.90;;;;;;6196349;23;20024;-79
2024/02/01 05:49:22;;;;;;;66.25;25.65;;;-0.60;99.90;;;;;;6223703;23;20323;-79
2024/02/01 05:51:52;;;;;;;66.18;25.90;;;-0.60;99.90;;;;;;6197089;23;20339;-79
2024/02/01 05:54:22;;;;;;;64.90;23.88;;;-0.70;99.90;;;;;;6197708;23;20017;-78
2024/02/01 05:56:50;;;;;;;62.20;25.20;;;-0.60;99.90;;;;;;6223349;23;20020;-79
2024/02/01 05:59:20;;;;;;;60.28;24.17;;;-0.60;99.90;;;;;;6196364;23;20025;-79
2024/02/01 06:01:49;;;;;;;66.80;26.00;;;-0.30;99.90;;;;;;6223602;23;20067;-79
2024/02/01 06:04:18;;;;;;;70.78;26.15;;;-0.60;99.90;;;;;;6195446;23;20021;-79
2024/02/01 06:06:47;;;;;;;67.28;26.60;;;-0.20;99.90;;;;;;6201555;23;20016;-81
2024/02/01 06:09:17;;;;;;;65.00;26.65;;;-0.70;99.90;;;;;;6217041;23;20003;-80
2024/02/01 06:11:49;;;;;;;75.72;29.23;;;-0.60;99.90;;;;;;6215429;23;20004;-80
2024/02/01 06:14:18;;;;;;;74.03;27.13;;;-0.70;99.90;;;;;;6217077;23;20011;-81
2024/02/01 06:16:47;;;;;;;66.78;24.85;;;-0.50;99.90;;;;;;6243108;23;20023;-81
2024/02/01 06:19:17;;;;;;;63.70;25.90;;;-0.50;99.90;;;;;;6216645;23;20012;-80
2024/02/01 06:21:46;;;;;;;65.10;23.30;;;-0.30;99.90;;;;;;6243119;23;19992;-81
2024/02/01 06:24:18;;;;;;;54.88;23.80;;;-0.60;99.90;;;;;;6217301;23;20004;-81
2024/02/01 06:26:49;;;;;;;51.42;21.77;;;-0.50;99.90;;;;;;6216987;23;20477;-81
2024/02/01 06:29:17;;;;;;;64.40;26.17;;;-0.50;99.90;;;;;;6216013;23;20060;-81
2024/02/01 06:31:49;;;;;;;82.97;30.02;;;-0.50;99.90;;;;;;6216133;23;20032;-79
2024/02/01 06:34:24;;;;;;;100.07;33.55;;;-0.40;99.90;;;;;;6214467;23;20085;-79
2024/02/01 06:36:58;;;;;;;84.15;30.13;;;-1.60;99.90;;;;;;6215550;23;20016;-78
2024/02/01 06:39:48;;;;;;;84.20;30.13;;;-0.20;99.90;;;;;;6214178;23;20036;-77
2024/02/01 06:42:31;;;;;;;74.00;29.05;;;-0.40;99.90;;;;;;6240615;23;20044;-79
2024/02/01 06:45:24;;;;;;;64.22;25.85;;;-0.40;99.90;;;;;;6241549;23;20064;-79
2024/02/01 06:48:04;;;;;;;66.03;24.60;;;-0.40;99.90;;;;;;6241021;23;19997;-78
2024/02/01 06:50:54;;;;;;;63.08;25.45;;;0.20;99.90;;;;;;6215015;23;20021;-79
2024/02/01 06:53:33;;;;;;;65.78;25.13;;;-0.10;99.90;;;;;;6215492;23;20017;-77
2024/02/01 06:56:13;;;;;;;78.28;25.98;;;-0.40;99.90;;;;;;6215084;23;20001;-79
2024/02/01 06:59:06;;;;;;;70.05;26.95;;;-1.70;99.90;;;;;;6214812;23;20020;-79
2024/02/01 07:01:51;;;;;;;62.22;24.33;;;0.70;99.90;;;;;;6214534;23;19997;-79
2024/02/01 07:04:31;;;;;;;67.72;25.13;;;-0.30;99.90;;;;;;6240906;23;20016;-78
2024/02/01 07:07:17;;;;;;;64.05;25.77;;;0.00;99.90;;;;;;6214886;23;20013;-78
2024/02/01 07:09:57;;;;;;;71.28;27.63;;;-0.20;99.90;;;;;;6214755;23;20027;-79
2024/02/01 07:12:42;;;;;;;73.80;21.27;;;-0.50;99.90;;;;;;6214758;23;20073;-78
2024/02/01 07:15:30;;;;;;;69.75;27.60;;;-0.20;99.90;;;;;;6240386;23;20016;-79
2024/02/01 07:18:03;;;;;;;64.00;24.27;;;-0.10;99.90;;;;;;6214895;23;20353;-79
2024/02/01 07:20:46;;;;;;;63.03;26.58;;;-0.20;99.90;;;;;;6214559;23;20357;-77
2024/02/01 07:23:38;;;;;;;75.53;29.42;;;-0.90;99.90;;;;;;6239908;23;20016;-77
2024/02/01 07:26:16;;;;;;;74.05;26.67;;;-0.10;99.90;;;;;;6241305;23;20060;-79
2024/02/01 07:59:26;;;;;;;65.30;24.40;;;1.30;99.90;;;;;;6238527;23;20012;-78
2024/02/01 08:02:13;;;;;;;60.42;23.65;;;0.40;99.90;;;;;;6212925;23;20084;-78
2024/02/01 08:07:48;;;;;;;61.53;25.02;;;0.30;99.90;;;;;;6213733;23;20013;-79
2024/02/01 08:10:19;;;;;;;78.85;27.52;;;0.20;99.90;;;;;;6215171;23;20008;-79
2024/02/01 08:12:49;;;;;;;64.68;25.42;;;-0.20;99.90;;;;;;6212962;23;20071;-78
2024/02/01 08:15:19;;;;;;;66.35;28.40;;;0.10;99.90;;;;;;6214842;23;20311;-79
2024/02/01 08:17:50;;;;;;;69.18;25.33;;;0.20;99.90;;;;;;6240498;23;20028;-79
2024/02/01 08:20:21;;;;;;;66.07;28.20;;;0.80;99.90;;;;;;6215271;23;19997;-79
2024/02/01 08:22:54;;;;;;;68.32;26.58;;;0.20;99.90;;;;;;6241432;23;19996;-79
2024/02/01 08:25:23;;;;;;;62.38;25.08;;;0.40;99.90;;;;;;6240662;23;20028;-79
2024/02/01 08:27:54;;;;;;;66.43;26.63;;;0.20;99.90;;;;;;6216056;23;20000;-79
2024/02/01 08:30:27;;;;;;;56.53;23.42;;;0.20;99.90;;;;;;6216261;23;20013;-79
2024/02/01 08:33:03;;;;;;;;;;;0.30;99.90;;;;;;6214816;23;20000;-79
2024/02/01 08:35:40;;;;;;;57.15;21.50;;;0.30;99.90;;;;;;6240831;23;19919;-79
2024/02/01 08:38:10;;;;;;;58.25;23.73;;;0.00;99.90;;;;;;6215847;23;20020;-79
2024/02/01 08:40:41;;;;;;;74.45;27.35;;;0.30;99.90;;;;;;6216223;23;20028;-79
2024/02/01 08:43:13;;;;;;;70.75;28.38;;;0.30;99.90;;;;;;6191170;23;20011;-79
2024/02/01 08:45:44;;;;;;;60.92;24.55;;;-0.20;99.90;;;;;;6241180;23;20120;-79
2024/02/01 08:48:14;;;;;;;66.00;25.75;;;0.30;99.90;;;;;;6214496;23;20017;-79
2024/02/01 08:50:49;;;;;;;78.15;28.05;;;0.60;99.90;;;;;;6216056;23;20021;-80
2024/02/01 08:53:22;;;;;;;72.50;27.33;;;0.30;99.90;;;;;;6215551;23;20048;-79
2024/02/01 08:55:53;;;;;;;65.82;25.88;;;-0.40;99.90;;;;;;6180135;23;20009;-79
2024/02/01 08:58:26;;;;;;;68.70;26.80;;;1.30;99.90;;;;;;6130690;23;20025;-79
2024/02/01 09:00:55;;;;;;;64.00;26.27;;;0.50;99.90;;;;;;6155766;23;19997;-80
2024/02/01 09:03:29;;;;;;;57.78;25.73;;;0.40;99.90;;;;;;6157139;23;20012;-80
2024/02/01 09:06:25;;;;;;;62.10;26.33;;;0.60;99.90;;;;;;6158093;23;20017;-80
2024/02/01 09:09:28;;;;;;;64.60;25.20;;;0.80;99.90;;;;;;6157402;23;20013;-80
2024/02/01 09:16:01;;;;;;;71.43;29.17;;;0.50;99.90;;;;;;6177744;23;20105;-76
2024/02/01 09:18:30;;;;;;;67.68;28.60;;;1.20;99.90;;;;;;6136364;23;20025;-76
2024/02/01 09:21:04;;;;;;;72.72;29.13;;;1.30;99.90;;;;;;6135993;23;20026;-76
2024/02/01 09:23:39;;;;;;;69.93;28.70;;;1.30;99.90;;;;;;6161728;23;20017;-76
2024/02/01 09:26:09;;;;;;;;;;;1.40;99.90;;;;;;6146357;23;20020;-76
2024/02/01 09:28:40;;;;;;;68.10;27.02;;;1.40;99.90;;;;;;6196876;23;19923;-76
2024/02/01 09:31:19;;;;;;;63.15;26.45;;;1.40;99.90;;;;;;6197300;23;20071;-76
2024/02/01 09:33:50;;;;;;;69.60;30.65;;;1.40;99.90;;;;;;6196488;23;20027;-76
2024/02/01 09:36:21;;;;;;;65.70;29.40;;;1.40;99.90;;;;;;6191785;23;20025;-76
2024/02/01 09:38:50;;;;;;;67.90;30.83;;;1.40;99.90;;;;;;6191343;23;20028;-75
2024/02/01 09:41:21;;;;;;;70.10;30.77;;;1.50;99.90;;;;;;6190837;23;20100;-76
2024/02/01 09:43:52;;;;;;;64.20;27.70;;;1.50;99.90;;;;;;6191124;23;20030;-75
2024/02/01 09:46:21;;;;;;;70.47;29.63;;;1.50;99.90;;;;;;6190507;23;20517;-75
2024/02/01 09:48:54;;;;;;;65.88;29.50;;;1.60;99.90;;;;;;6190727;23;20020;-75
2024/02/01 09:51:23;;;;;;;72.20;30.48;;;1.60;99.90;;;;;;6192329;23;20017;-75
2024/02/01 09:53:54;;;;;;;65.68;30.45;;;1.60;99.90;;;;;;6191151;23;20033;-75
2024/02/01 09:56:25;;;;;;;71.60;30.30;;;1.70;99.90;;;;;;6190494;23;20025;-75
2024/02/01 09:58:55;;;;;;;75.13;30.63;;;1.70;99.90;;;;;;6190820;23;20025;-76
2024/02/01 10:01:25;;;;;;;69.60;31.05;;;1.80;99.90;;;;;;6189522;23;20031;-75
2024/02/01 10:03:54;;;;;;;63.60;30.25;;;1.80;99.90;;;;;;6189242;23;20044;-75
2024/02/01 10:06:24;;;;;;;70.85;31.90;;;1.90;99.90;;;;;;6188799;23;20021;-75
2024/02/01 10:08:54;;;;;;;73.82;31.45;;;1.90;99.90;;;;;;6190096;23;20099;-75
2024/02/01 10:11:23;;;;;;;73.30;30.80;;;2.00;99.90;;;;;;6190244;23;20332;-75
2024/02/01 10:13:51;;;;;;;74.47;32.70;;;2.10;99.90;;;;;;6187576;23;20021;-75
2024/02/01 10:16:21;;;;;;;71.60;30.45;;;2.30;99.90;;;;;;6188233;23;20021;-75
2024/02/01 10:18:54;;;;;;;73.03;32.80;;;2.40;99.90;;;;;;6163019;23;20103;-75
2024/02/01 10:21:25;;;;;;;74.10;32.13;;;2.40;99.90;;;;;;6188086;23;20454;-74
2024/02/01 10:24:08;;;;;;;;;;;2.70;99.90;;;;;;6188750;23;20096;-74
2024/02/01 10:26:39;;;;;;;69.57;29.85;;;2.90;99.90;;;;;;6194774;23;19939;-78
2024/02/01 10:29:19;;;;;;;68.72;25.77;;;3.00;99.90;;;;;;6123528;23;20085;-78
2024/02/01 10:31:55;;;;;;;68.00;30.35;;;2.40;99.90;;;;;;6119888;23;20045;-78
2024/02/01 10:34:26;;;;;;;64.93;27.83;;;3.40;99.90;;;;;;6121609;23;20060;-78
2024/02/01 10:37:01;;;;;;;75.47;31.33;;;2.90;99.90;;;;;;6124183;23;20038;-78
2024/02/01 10:39:40;;;;;;;71.95;30.23;;;2.90;99.90;;;;;;6123834;23;20025;-78
2024/02/01 10:42:36;;;;;;;67.07;28.35;;;2.90;99.90;;;;;;6038557;23;20044;-77
2024/02/01 10:45:09;;;;;;;71.18;30.52;;;2.90;99.90;;;;;;6033558;23;20083;-78
2024/02/01 10:47:46;;;;;;;71.47;30.70;;;2.80;99.90;;;;;;6090659;23;20089;-78
2024/02/01 10:50:19;;;;;;;77.63;32.75;;;1.60;99.90;;;;;;6122143;23;20022;-77
2024/02/01 10:52:50;;;;;;;78.28;33.83;;;2.80;99.90;;;;;;6117740;23;20026;-77
2024/02/01 10:55:22;;;;;;;98.57;39.00;;;3.60;99.90;;;;;;6119346;23;20014;-77
2024/02/01 10:57:52;;;;;;;101.07;41.13;;;3.10;99.90;;;;;;6098830;23;20077;-78
2024/02/01 11:00:21;;;;;;;119.30;43.80;;;3.20;99.90;;;;;;6152033;23;20027;-77
2024/02/01 11:02:58;;;;;;;66.38;29.25;;;3.30;99.90;;;;;;6207829;23;20024;-78
2024/02/01 11:05:31;;;;;;;88.93;37.85;;;3.40;99.90;;;;;;6206397;23;20048;-77
2024/02/01 11:08:00;;;;;;;64.50;28.05;;;3.70;99.90;;;;;;6207036;23;20017;-79
2024/02/01 11:10:31;;;;;;;70.35;30.60;;;3.70;99.90;;;;;;6204466;23;20024;-78
2024/02/01 11:12:59;;;;;;;65.75;29.90;;;3.80;99.90;;;;;;6203941;23;20040;-77
2024/02/01 11:15:31;;;;;;;64.43;27.67;;;4.60;99.90;;;;;;6203488;23;20021;-78
2024/02/01 11:18:09;;;;;;;72.07;30.38;;;4.10;99.90;;;;;;6205271;23;20032;-77
2024/02/01 11:20:39;;;;;;;69.90;31.88;;;4.30;99.90;;;;;;6199528;23;20044;-77
2024/02/01 11:23:08;;;;;;;69.95;31.33;;;4.30;99.90;;;;;;6199270;23;20020;-78
2024/02/01 11:25:39;;;;;;;72.13;32.25;;;4.80;99.90;;;;;;6197926;23;20048;-77
2024/02/01 11:28:11;;;;;;;71.15;31.42;;;4.30;99.90;;;;;;6203220;23;20043;-78
2024/02/01 11:30:51;;;;;;;69.70;29.95;;;4.50;99.90;;;;;;6197902;23;20481;-77
2024/02/01 11:33:34;;;;;;;66.75;30.27;;;4.60;99.90;;;;;;6195713;23;20079;-77
2024/02/01 11:36:07;;;;;;;69.55;29.30;;;4.60;99.90;;;;;;6197036;23;20017;-77
2024/02/01 11:38:36;;;;;;;69.35;33.10;;;4.80;99.90;;;;;;6185543;23;20163;-75
2024/02/01 11:41:06;;;;;;;65.50;29.33;;;4.80;99.90;;;;;;6184939;23;20021;-75
2024/02/01 11:43:38;;;;;;;59.08;29.92;;;4.80;99.90;;;;;;6185589;23;20029;-75
2024/02/01 11:46:07;;;;;;;64.85;29.75;;;4.90;99.90;;;;;;6184293;23;20079;-75
2024/02/01 11:48:42;;;;;;;66.10;29.20;;;4.70;99.90;;;;;;6185504;23;20020;-75
2024/02/01 11:51:11;;;;;;;71.97;33.30;;;4.80;99.90;;;;;;6185418;23;20087;-75
2024/02/01 11:53:39;;;;;;;74.45;32.03;;;4.80;99.90;;;;;;6183953;23;20029;-75
2024/02/01 11:56:10;;;;;;;63.63;30.58;;;4.90;99.90;;;;;;6183461;23;20017;-75
2024/02/01 11:58:39;;;;;;;69.40;30.38;;;5.10;99.90;;;;;;6185608;23;20335;-75
2024/02/01 12:01:13;;;;;;;75.70;33.17;;;5.20;99.90;;;;;;6185312;23;20458;-76
2024/02/01 12:03:49;;;;;;;70.80;30.88;;;5.30;99.90;;;;;;6187481;23;20167;-76
2024/02/01 12:06:22;;;;;;;63.42;30.20;;;5.30;99.90;;;;;;6156780;23;20018;-75
2024/02/01 12:08:52;;;;;;;64.60;30.65;;;5.30;99.90;;;;;;6133114;23;20486;-75
2024/02/01 12:11:28;;;;;;;64.90;27.70;;;5.30;99.90;;;;;;6132519;23;20108;-76
2024/02/01 12:14:00;;;;;;;67.70;31.67;;;5.30;99.90;;;;;;6157847;23;20048;-76
2024/02/01 12:16:32;;;;;;;70.15;30.20;;;5.30;99.90;;;;;;6132875;23;20438;-76
2024/02/01 12:19:03;;;;;;;65.13;31.13;;;5.30;99.90;;;;;;6158530;23;20029;-75
2024/02/01 12:21:35;;;;;;;56.47;27.90;;;5.30;99.90;;;;;;6132596;23;20124;-76
2024/02/01 12:24:04;;;;;;;61.85;27.75;;;5.30;99.90;;;;;;6133704;23;20021;-75
2024/02/01 12:26:40;;;;;;;59.90;28.20;;;5.40;99.90;;;;;;6157561;23;20024;-76
2024/02/01 12:29:11;;;;;;;62.50;27.23;;;5.40;99.90;;;;;;6157571;23;20026;-75
2024/02/01 12:31:41;;;;;;;56.40;24.73;;;5.50;99.90;;;;;;6156925;23;20104;-74
2024/02/01 12:34:13;;;;;;;58.38;27.52;;;5.60;99.90;;;;;;6159565;23;20172;-76
2024/02/01 12:36:44;;;;;;;68.05;32.90;;;5.70;99.90;;;;;;6106324;23;20050;-76
2024/02/01 12:39:13;;;;;;;61.20;27.48;;;5.80;99.90;;;;;;6071154;23;20054;-77
2024/02/01 12:41:46;;;;;;;54.13;25.50;;;5.90;99.90;;;;;;6046489;23;20126;-76
2024/02/01 12:44:15;;;;;;;56.00;26.40;;;6.00;99.90;;;;;;6071952;23;20354;-76
2024/02/01 12:47:11;;;;;;;56.15;28.08;;;6.00;99.90;;;;;;6077280;23;20026;-83
2024/02/01 12:50:36;;;;;;;68.82;28.95;;;6.00;99.90;;;;;;6006462;23;20012;-79
2024/02/01 12:59:41;;;;;;;55.92;28.60;;;7.10;99.90;;;;;;5923163;24;20049;-84
2024/02/01 13:02:42;;;;;;;55.50;27.23;;;6.10;99.90;;;;;;5922959;24;20021;-83
2024/02/01 14:23:40;;;;;;;26.20;11.45;;;6.80;99.90;;;;;;6181459;23;20025;-88
2024/02/01 14:26:17;;;;;;;27.70;12.30;;;6.70;99.90;;;;;;6208027;23;20043;-87
2024/02/01 14:28:46;;;;;;;19.90;10.57;;;6.60;99.90;;;;;;6207165;23;20532;-85
2024/02/01 14:31:32;;;;;;;22.38;9.82;;;5.90;99.90;;;;;;6206810;23;20016;-87
2024/02/01 14:34:01;;;;;;;23.70;12.23;;;6.70;99.90;;;;;;6205696;23;20017;-86
2024/02/01 14:36:37;;;;;;;38.35;17.52;;;7.10;99.90;;;;;;6181620;23;20020;-85
2024/02/01 14:39:21;;;;;;;31.05;13.75;;;5.90;99.90;;;;;;6181364;23;20016;-86
2024/02/01 14:41:56;;;;;;;29.33;12.80;;;6.80;99.90;;;;;;6203687;23;20029;-87
2024/02/01 14:44:28;;;;;;;25.05;10.00;;;6.70;99.90;;;;;;6204045;23;20067;-85
2024/02/01 14:46:57;;;;;;;29.35;15.68;;;6.50;99.90;;;;;;6203554;23;20008;-86
2024/02/01 14:49:26;;;;;;;24.40;12.93;;;6.50;99.90;;;;;;6205252;23;20028;-84
2024/02/01 14:51:55;;;;;;;31.88;16.48;;;6.80;99.90;;;;;;6205075;23;20085;-87
2024/02/01 14:54:26;;;;;;;38.55;21.10;;;6.70;99.90;;;;;;6205947;23;20024;-82
2024/02/01 14:56:54;;;;;;;27.45;12.90;;;6.70;99.90;;;;;;6203993;23;20021;-84
2024/02/01 14:59:24;;;;;;;23.73;12.48;;;6.70;99.90;;;;;;6229547;23;20058;-85
2024/02/01 15:01:52;;;;;;;21.58;10.85;;;6.60;99.90;;;;;;6204721;23;20016;-86
2024/02/01 15:04:21;;;;;;;19.80;10.07;;;6.70;99.90;;;;;;6205158;23;20043;-87
2024/02/01 15:06:50;;;;;;;18.95;10.18;;;6.60;99.90;;;;;;6204356;23;20354;-85
2024/02/01 15:09:19;;;;;;;16.45;7.22;;;6.70;99.90;;;;;;6204732;23;20441;-83
2024/02/01 15:11:52;;;;;;;18.25;9.07;;;6.60;99.90;;;;;;6205085;23;20020;-85
2024/02/01 15:14:20;;;;;;;20.60;10.55;;;6.70;99.90;;;;;;6205052;23;20027;-86
2024/02/01 15:16:49;;;;;;;18.67;9.25;;;6.60;99.90;;;;;;6230365;23;20041;-85
2024/02/01 15:19:18;;;;;;;21.15;10.18;;;6.70;99.90;;;;;;6205530;23;20048;-85
2024/02/01 15:21:51;;;;;;;23.45;11.23;;;6.60;99.90;;;;;;6203770;23;20017;-87
2024/02/01 15:24:22;;;;;;;30.63;13.68;;;6.50;99.90;;;;;;6202521;23;20033;-84
2024/02/01 15:26:57;;;;;;;33.75;13.48;;;6.30;99.90;;;;;;6202492;23;20035;-87
2024/02/01 15:29:26;;;;;;;33.92;14.98;;;6.20;99.90;;;;;;6202175;23;20025;-82
2024/02/01 15:31:55;;;;;;;32.35;13.55;;;6.10;99.90;;;;;;6201127;23;20036;-84
2024/02/01 15:34:24;;;;;;;27.90;12.43;;;5.60;99.90;;;;;;6203280;23;20055;-86
2024/02/01 15:36:52;;;;;;;37.88;18.40;;;6.10;99.90;;;;;;6229338;23;20016;-84
2024/02/01 15:39:21;;;;;;;54.42;22.85;;;6.20;99.90;;;;;;6202736;23;20017;-86
2024/02/01 15:41:51;;;;;;;51.00;24.38;;;6.10;99.90;;;;;;6202089;23;20025;-85
2024/02/01 15:44:21;;;;;;;75.78;38.63;;;6.10;99.90;;;;;;6202555;23;20024;-85
2024/02/01 15:46:49;;;;;;;92.07;48.92;;;6.10;99.90;;;;;;6202562;23;20013;-85
2024/02/01 15:49:18;;;;;;;107.18;54.15;;;6.10;99.90;;;;;;6227495;23;20072;-87
2024/02/01 15:51:48;;;;;;;77.90;37.28;;;6.10;99.90;;;;;;6202933;23;20088;-86
2024/02/01 15:54:17;;;;;;;59.80;33.92;;;6.10;99.90;;;;;;6201458;23;20074;-86
2024/02/01 15:56:48;;;;;;;62.83;32.33;;;6.00;99.90;;;;;;6230660;23;20016;-86
2024/02/01 15:59:17;;;;;;;52.80;27.10;;;6.10;99.90;;;;;;6202939;23;20418;-82
2024/02/01 16:01:47;;;;;;;38.17;18.70;;;6.10;99.90;;;;;;6201892;23;20028;-81
2024/02/01 16:04:15;;;;;;;40.90;17.67;;;6.00;99.90;;;;;;6202987;23;20099;-82
2024/02/01 16:06:44;;;;;;;57.35;34.88;;;5.50;99.90;;;;;;6202824;23;20105;-81
2024/02/01 16:09:13;;;;;;;63.83;37.65;;;6.00;99.90;;;;;;6203226;23;20020;-82